Almont, Michigan
Current Conditions -  °F | °C
As of 4:13 AM on Friday 19 Dec 2014 (Local Time) from KD95 Reporting Station
Overcast Overcast  
Wind Chill: 26°   Ceiling: 1400
Heat Index: 26°   Visibility: 10mi
Dew Point: 22°   Wind: 3mph
Humidity: 87%   Direction: 320°NW
Pressure: 30.21"   Gusts: NA
Location:  42.92°N, 83.04°W
Report Text: KD95 190913Z AUTO 32003KT 10SM OVC014 M04/M05 A3021 RMK AO2 T10361055
Loading
Personal Weather Stations






























Interactive Weather Map New forecast layout! Learn more

10-Day Weather Forecast

Advertisements
Track Severe Weather on mobile